Terminal Aerodrome Forecast
Issued by NWS Melbourne, FL

Home | Current Version | Previous Version | Text Only | Print | Product List | Glossary On
Versions: 1 2 3 4 5 6 7 8 9 10 11 12 13 14
000
FTUS42 KMLB 052320
TAFVRB
TAF
KVRB 052320Z 0600/0624 03005KT P6SM VCSH FEW080 BKN110 OVC200
     FM060300 05008KT P6SM VCSH FEW025 BKN080
     FM061500 33012KT P6SM VCSH FEW025 SCT050 BKN250=

USA.gov is the U.S. government's official web portal to all federal, state and local government web resources and services.